Ashley, Pennsylvania
Current Conditions -  °F | °C
As of 2:54 AM on Monday 22 Dec 2014 (Local Time) from KAVP Reporting Station
Overcast Overcast  
Wind Chill: 31°   Ceiling: 1900
Heat Index: 31°   Visibility: 10mi
Dew Point: 22°   Wind: 0mph
Humidity: 69%   Direction: NA
Pressure: 30.29"   Gusts: NA
Location:  41.1921°N, 75.9213°W
Report Text: KAVP 220754Z AUTO 00000KT 10SM OVC019 M01/M06 A3029 RMK AO2 SLP265 T10061056
Loading
Personal Weather Stations






























Interactive Weather Map New forecast layout! Learn more

10-Day Weather Forecast

Advertisements
Track Severe Weather on mobile